Sun Universe — 3FOQ4 — position and weather

sailwx.info

Track history (hours):
 
Tides and Currents Weather Stations Pressure Air Temp Water Temp Dewpoint Dewpoint Depression Visibility Wind Speed Wind Dir Waves Ship Positions

Sun Universe

Last reported at 2014-Aug-22 09:30 UTC. Time now 2014-Aug-23 19:53 UTC.
Position N 22°40' E 113°41'.

Length 116 m; draft 8.8 m.

Type: Cargo ship. MMSI: 371647000.

Date/timePositionNaut miles runAvg speedWind from/ knotsBaromVisibWave heightAir tempDewpointWater temp
2014-Aug-22 09:30N 22°40' E 113°41'1010.0
2014-Aug-22 08:33N 22°31' E 113°44'1111.0
2014-Aug-22 07:33N 22°21' E 113°48'8 8.5
2014-Aug-22 06:33N 22°12' E 113°48'8 8.1
2014-Aug-22 05:33N 22°04' E 113°50'15411.9
2014-Aug-21 16:33N 22°50' E 116°29'1312.7
2014-Aug-21 15:33N 22°55' E 116°42'1312.6
2014-Aug-21 14:33N 23°00' E 116°54'1212.4
2014-Aug-21 13:33N 23°05' E 117°07'3511.5
2014-Aug-21 10:32N 23°25' E 117°38'1511.4
2014-Aug-21 09:14N 23°33' E 117°51'811.3
2014-Aug-21 08:33N 23°37' E 117°58'1211.7
2014-Aug-21 07:33N 23°43' E 118°09'1212.0
2014-Aug-21 06:33N 23°49' E 118°20'2912.2
2014-Aug-21 04:09N 24°05' E 118°48'712.2
2014-Aug-21 03:33N 24°09' E 118°54'1312.5
2014-Aug-21 02:33N 24°15' E 119°06'  
2014-Aug-17 15:27N 33°49' E 132°31'1212.5
2014-Aug-17 14:32N 33°57' E 132°41'  
Track history (hours):
 
Tides and Currents Weather Stations Pressure Air Temp Water Temp Dewpoint Dewpoint Depression Visibility Wind Speed Wind Dir Waves Ship Positions

Sun Universe

Last reported at 2014-Aug-22 09:30 UTC. Time now 2014-Aug-23 19:53 UTC.
Position N 22°40' E 113°41'.

Length 116 m; draft 8.8 m.

Type: Cargo ship. MMSI: 371647000.

Date/timePositionNaut miles runAvg speedWind from/ knotsBaromVisibWave heightAir tempDewpointWater temp
2014-Aug-22 09:30N 22°40' E 113°41'1010.0
2014-Aug-22 08:33N 22°31' E 113°44'1111.0
2014-Aug-22 07:33N 22°21' E 113°48'8 8.5
2014-Aug-22 06:33N 22°12' E 113°48'8 8.1
2014-Aug-22 05:33N 22°04' E 113°50'15411.9
2014-Aug-21 16:33N 22°50' E 116°29'1312.7
2014-Aug-21 15:33N 22°55' E 116°42'1312.6
2014-Aug-21 14:33N 23°00' E 116°54'1212.4
2014-Aug-21 13:33N 23°05' E 117°07'3511.5
2014-Aug-21 10:32N 23°25' E 117°38'1511.4
2014-Aug-21 09:14N 23°33' E 117°51'811.3
2014-Aug-21 08:33N 23°37' E 117°58'1211.7
2014-Aug-21 07:33N 23°43' E 118°09'1212.0
2014-Aug-21 06:33N 23°49' E 118°20'2912.2
2014-Aug-21 04:09N 24°05' E 118°48'712.2
2014-Aug-21 03:33N 24°09' E 118°54'1312.5
2014-Aug-21 02:33N 24°15' E 119°06'  
2014-Aug-17 15:27N 33°49' E 132°31'1212.5
2014-Aug-17 14:32N 33°57' E 132°41'  

Dump ship's entire track history